createdAt,value
2019-04-30T00:00:06.175Z,15.07
2019-04-30T00:02:40.407Z,14.97
2019-04-30T00:05:17.338Z,14.98
2019-04-30T00:07:41.526Z,15.05
2019-04-30T00:10:12.824Z,15.11
2019-04-30T00:12:42.203Z,15.09
2019-04-30T00:15:16.169Z,15.06
2019-04-30T00:17:42.849Z,15.12
2019-04-30T00:20:12.313Z,15.06
2019-04-30T00:22:48.880Z,15.09
2019-04-30T00:25:13.018Z,15.06
2019-04-30T00:27:42.452Z,15.05
2019-04-30T00:30:12.066Z,15.03
2019-04-30T00:32:43.621Z,15.03
2019-04-30T00:35:16.222Z,15.00
2019-04-30T00:37:44.974Z,14.97
2019-04-30T00:40:15.403Z,14.89
2019-04-30T00:42:45.784Z,14.79
2019-04-30T00:45:15.609Z,14.70
2019-04-30T00:47:47.876Z,14.63
2019-04-30T00:50:16.586Z,14.47
2019-04-30T00:52:45.942Z,14.38
2019-04-30T00:55:15.271Z,14.38
2019-04-30T00:57:47.431Z,14.34
2019-04-30T01:00:25.195Z,14.29
2019-04-30T01:02:52.969Z,14.23
2019-04-30T01:05:25.478Z,14.08
2019-04-30T01:07:55.018Z,14.11
2019-04-30T01:10:28.291Z,14.04
2019-04-30T01:13:01.751Z,13.93
2019-04-30T01:15:29.182Z,13.81
2019-04-30T01:17:59.390Z,13.76
2019-04-30T01:20:32.742Z,13.67
2019-04-30T01:23:03.186Z,13.63
2019-04-30T01:25:31.750Z,13.71
2019-04-30T01:28:01.628Z,13.63
2019-04-30T01:30:31.783Z,13.56
2019-04-30T01:33:01.228Z,13.60
2019-04-30T01:35:32.766Z,13.65
2019-04-30T01:38:04.170Z,13.73
2019-04-30T01:40:32.828Z,13.76
2019-04-30T01:43:02.256Z,13.72
2019-04-30T01:45:31.831Z,13.73
2019-04-30T01:48:08.820Z,13.59
2019-04-30T01:50:33.703Z,13.57
2019-04-30T01:53:04.880Z,13.62
2019-04-30T01:55:36.143Z,13.46
2019-04-30T01:58:10.126Z,13.31
2019-04-30T02:00:41.134Z,13.36
2019-04-30T02:03:11.213Z,13.33
2019-04-30T02:05:40.742Z,13.32
2019-04-30T02:08:10.114Z,13.23
2019-04-30T02:10:40.404Z,13.18
2019-04-30T02:13:09.794Z,13.16
2019-04-30T02:15:39.141Z,13.21
2019-04-30T02:18:08.730Z,13.09
2019-04-30T02:20:38.454Z,13.02
2019-04-30T02:23:09.705Z,13.04
2019-04-30T02:25:39.900Z,13.07
2019-04-30T02:28:09.338Z,13.16
2019-04-30T02:30:40.428Z,12.87
2019-04-30T02:33:09.980Z,12.82
2019-04-30T02:35:40.986Z,12.97
2019-04-30T02:38:12.005Z,13.15
2019-04-30T02:40:42.528Z,13.05
2019-04-30T02:43:13.157Z,13.08
2019-04-30T02:45:44.474Z,13.15
2019-04-30T02:48:15.336Z,13.22
2019-04-30T02:50:49.168Z,13.14
2019-04-30T02:53:50.953Z,13.19
2019-04-30T02:56:26.339Z,13.15
2019-04-30T02:58:53.693Z,13.19
2019-04-30T03:01:23.179Z,13.06
2019-04-30T03:03:52.539Z,13.11
2019-04-30T03:06:23.692Z,13.16
2019-04-30T03:08:52.984Z,13.15
2019-04-30T03:11:22.349Z,13.02
2019-04-30T03:13:51.827Z,13.06
2019-04-30T03:19:31.990Z,12.87
2019-04-30T03:22:10.196Z,12.91
2019-04-30T03:24:42.643Z,12.88
2019-04-30T03:27:10.950Z,12.89
2019-04-30T03:29:40.738Z,12.84
2019-04-30T03:32:13.640Z,12.71
2019-04-30T03:34:42.432Z,12.84
2019-04-30T03:37:12.345Z,12.92
2019-04-30T03:39:41.715Z,12.89
2019-04-30T03:42:11.090Z,12.95
2019-04-30T03:44:40.498Z,12.94
2019-04-30T03:47:10.880Z,12.96
2019-04-30T03:49:40.563Z,13.07
2019-04-30T03:52:13.087Z,13.04
2019-04-30T03:54:41.111Z,13.22
2019-04-30T03:57:10.981Z,13.42
2019-04-30T03:59:40.599Z,13.61
2019-04-30T04:02:14.726Z,13.85
2019-04-30T04:04:52.268Z,14.48
2019-04-30T04:07:21.500Z,15.01
2019-04-30T04:09:55.447Z,15.23
2019-04-30T04:12:25.799Z,14.97
2019-04-30T04:14:55.190Z,14.72
2019-04-30T04:17:24.628Z,14.87
2019-04-30T04:19:54.102Z,14.97
2019-04-30T04:22:23.434Z,15.01
2019-04-30T04:24:52.928Z,15.14
2019-04-30T04:27:22.266Z,15.15
2019-04-30T04:29:51.671Z,15.26
2019-04-30T04:32:24.376Z,15.25
2019-04-30T04:34:52.275Z,15.25
2019-04-30T04:37:21.674Z,15.14
2019-04-30T04:39:50.986Z,15.37
2019-04-30T04:42:20.370Z,15.62
2019-04-30T04:44:50.374Z,15.56
2019-04-30T04:47:20.422Z,15.78
2019-04-30T04:49:50.764Z,16.05
2019-04-30T04:52:21.990Z,16.15
2019-04-30T04:54:51.769Z,16.36
2019-04-30T04:57:22.545Z,16.67
2019-04-30T04:59:52.442Z,16.70
2019-04-30T05:02:39.858Z,16.78
2019-04-30T05:05:09.844Z,16.77
2019-04-30T05:07:39.891Z,16.98
2019-04-30T05:10:09.975Z,17.10
2019-04-30T05:12:39.839Z,17.54
2019-04-30T05:15:09.789Z,17.91
2019-04-30T05:17:39.966Z,17.83
2019-04-30T05:20:10.193Z,17.89
2019-04-30T05:22:39.740Z,18.10
2019-04-30T05:25:09.528Z,18.35
2019-04-30T05:27:39.336Z,18.60
2019-04-30T05:30:12.185Z,18.68
2019-04-30T05:32:41.647Z,18.77
2019-04-30T05:35:11.318Z,18.50
2019-04-30T05:37:40.745Z,18.46
2019-04-30T05:40:10.288Z,18.45
2019-04-30T05:42:39.751Z,18.81
2019-04-30T05:45:09.741Z,19.22
2019-04-30T05:47:39.174Z,19.27
2019-04-30T05:50:09.181Z,19.37
2019-04-30T05:52:39.786Z,19.26
2019-04-30T05:55:09.550Z,18.99
2019-04-30T05:57:47.242Z,19.23
2019-04-30T06:00:10.936Z,19.19
2019-04-30T06:02:40.481Z,19.03
2019-04-30T06:05:10.278Z,18.97
2019-04-30T06:07:39.742Z,19.06
2019-04-30T06:10:16.704Z,19.05
2019-04-30T06:13:03.814Z,19.02
2019-04-30T06:15:35.044Z,19.47
2019-04-30T06:18:12.834Z,19.58
2019-04-30T06:20:38.741Z,19.61
2019-04-30T06:23:09.548Z,19.27
2019-04-30T06:25:55.778Z,18.94
2019-04-30T06:28:10.874Z,19.06
2019-04-30T06:30:40.784Z,19.54
2019-04-30T06:33:11.833Z,19.56
2019-04-30T06:35:41.478Z,19.78
2019-04-30T06:38:10.977Z,20.10
2019-04-30T06:40:43.231Z,20.54
2019-04-30T06:43:18.960Z,20.86
2019-04-30T06:45:50.972Z,20.74
2019-04-30T06:48:19.891Z,20.74
2019-04-30T06:50:49.452Z,20.29
2019-04-30T06:53:20.987Z,19.78
2019-04-30T06:55:50.181Z,19.97
2019-04-30T06:58:20.544Z,19.97
2019-04-30T07:00:53.314Z,20.95
2019-04-30T07:03:22.977Z,21.38
2019-04-30T07:05:52.375Z,21.52
2019-04-30T07:08:46.935Z,21.52
2019-04-30T07:11:26.356Z,21.65
2019-04-30T07:13:55.786Z,21.79
2019-04-30T07:16:25.207Z,21.90
2019-04-30T07:19:03.715Z,21.90
2019-04-30T07:21:36.617Z,21.85
2019-04-30T07:24:09.403Z,22.09
2019-04-30T07:26:39.215Z,22.04
2019-04-30T07:29:09.560Z,21.79
2019-04-30T07:31:39.546Z,21.79
2019-04-30T07:34:10.548Z,22.41
2019-04-30T07:36:46.825Z,21.88
2019-04-30T07:39:12.861Z,22.46
2019-04-30T07:41:42.334Z,22.59
2019-04-30T07:44:30.177Z,22.34
2019-04-30T07:46:49.278Z,22.66
2019-04-30T07:49:20.485Z,22.91
2019-04-30T07:51:51.895Z,23.60
2019-04-30T07:54:23.999Z,23.24
2019-04-30T07:56:56.302Z,23.45
2019-04-30T07:59:26.161Z,23.22
2019-04-30T08:02:13.713Z,23.32
2019-04-30T08:04:51.210Z,23.43
2019-04-30T08:07:20.993Z,23.45
2019-04-30T08:09:51.035Z,23.03
2019-04-30T08:12:26.059Z,23.40
2019-04-30T08:14:51.823Z,23.58
2019-04-30T08:20:15.809Z,24.54
2019-04-30T08:22:49.275Z,24.94
2019-04-30T08:25:21.314Z,24.67
2019-04-30T08:27:50.342Z,24.67
2019-04-30T08:30:26.424Z,24.47
2019-04-30T08:32:51.923Z,24.80
2019-04-30T08:35:21.015Z,25.33
2019-04-30T08:37:50.407Z,25.14
2019-04-30T08:40:21.586Z,25.14
2019-04-30T08:42:53.771Z,25.58
2019-04-30T08:45:25.199Z,25.54
2019-04-30T08:47:58.919Z,25.89
2019-04-30T08:50:33.191Z,26.05
2019-04-30T08:53:06.934Z,26.05
2019-04-30T08:55:39.126Z,26.31
2019-04-30T08:58:15.178Z,25.17
2019-04-30T09:00:44.913Z,25.27
2019-04-30T09:03:15.806Z,25.78
2019-04-30T09:05:46.769Z,26.11
2019-04-30T09:08:19.372Z,25.88
2019-04-30T09:10:49.044Z,25.78
2019-04-30T09:13:22.035Z,25.44
2019-04-30T09:15:53.306Z,25.61
2019-04-30T09:18:23.990Z,26.25
2019-04-30T09:21:03.339Z,26.54
2019-04-30T09:23:42.919Z,26.27
2019-04-30T09:28:50.027Z,26.59
2019-04-30T09:31:19.745Z,26.66
2019-04-30T09:33:49.322Z,26.88
2019-04-30T09:36:20.737Z,26.50
2019-04-30T09:38:56.155Z,27.15
2019-04-30T09:41:25.746Z,27.22
2019-04-30T09:44:09.921Z,26.61
2019-04-30T09:46:39.128Z,27.06
2019-04-30T09:49:09.643Z,27.52
2019-04-30T09:51:40.987Z,27.51
2019-04-30T09:57:09.117Z,27.17
2019-04-30T09:59:38.848Z,27.62
2019-04-30T10:02:11.839Z,29.19
2019-04-30T10:04:46.086Z,28.17
2019-04-30T10:07:25.838Z,28.10
2019-04-30T10:09:56.572Z,28.60
2019-04-30T10:12:29.503Z,28.06
2019-04-30T10:17:57.122Z,29.05
2019-04-30T10:20:34.848Z,28.22
2019-04-30T10:23:06.800Z,28.98
2019-04-30T10:25:38.331Z,28.36
2019-04-30T10:28:12.607Z,28.63
2019-04-30T10:30:42.827Z,27.46
2019-04-30T10:33:14.682Z,28.42
2019-04-30T10:35:52.599Z,29.19
2019-04-30T10:38:39.418Z,28.45
2019-04-30T10:41:13.914Z,28.97
2019-04-30T10:43:44.564Z,29.51
2019-04-30T10:49:01.922Z,29.04
2019-04-30T10:54:25.716Z,29.75
2019-04-30T10:56:55.623Z,29.43
2019-04-30T10:59:32.555Z,29.36
2019-04-30T11:02:05.114Z,29.43
2019-04-30T11:07:28.982Z,28.27
2019-04-30T11:09:58.870Z,28.07
2019-04-30T11:12:31.590Z,28.32
2019-04-30T11:15:10.858Z,28.45
2019-04-30T11:17:43.139Z,29.19
2019-04-30T11:20:14.570Z,29.29
2019-04-30T11:25:43.665Z,29.26
2019-04-30T11:28:15.554Z,30.14
2019-04-30T11:36:19.321Z,30.75
2019-04-30T11:38:56.091Z,30.80
2019-04-30T11:41:39.503Z,31.27
2019-04-30T11:44:41.147Z,31.74
2019-04-30T11:48:53.845Z,31.78
2019-04-30T11:49:53.254Z,32.01
2019-04-30T11:52:22.496Z,31.85
2019-04-30T11:54:56.375Z,31.34
2019-04-30T11:57:30.496Z,31.29
2019-04-30T12:00:03.272Z,30.67
2019-04-30T12:02:40.420Z,29.64
2019-04-30T12:05:20.816Z,29.75
2019-04-30T12:07:51.661Z,30.79
2019-04-30T12:10:29.421Z,30.71
2019-04-30T12:13:09.606Z,30.83
2019-04-30T12:15:56.279Z,31.18
2019-04-30T12:21:20.511Z,31.56
2019-04-30T12:23:49.613Z,31.71
2019-04-30T12:26:19.127Z,31.97
2019-04-30T12:28:52.512Z,31.27
2019-04-30T12:31:26.176Z,32.11
2019-04-30T12:33:57.265Z,31.95
2019-04-30T12:36:28.781Z,31.64
2019-04-30T12:38:57.412Z,31.83
2019-04-30T12:41:26.499Z,31.16
2019-04-30T12:43:55.639Z,30.57
2019-04-30T12:46:29.235Z,30.05
2019-04-30T12:49:01.417Z,29.29
2019-04-30T12:51:45.279Z,28.83
2019-04-30T12:54:15.247Z,28.29
2019-04-30T12:57:02.422Z,28.16
2019-04-30T12:59:41.262Z,27.69
2019-04-30T13:02:13.548Z,27.42
2019-04-30T13:04:46.595Z,27.54
2019-04-30T13:07:24.874Z,27.92
2019-04-30T13:09:57.823Z,26.97
2019-04-30T13:12:39.092Z,27.31
2019-04-30T13:15:12.347Z,26.99
2019-04-30T13:17:41.795Z,26.90
2019-04-30T13:20:21.166Z,26.56
2019-04-30T13:22:48.850Z,27.21
2019-04-30T13:25:30.273Z,27.83
2019-04-30T13:27:55.131Z,27.24
2019-04-30T13:30:32.912Z,27.36
2019-04-30T13:33:20.547Z,27.26
2019-04-30T13:35:55.415Z,27.66
2019-04-30T13:38:47.405Z,27.99
2019-04-30T13:41:19.286Z,28.47
2019-04-30T13:43:56.070Z,28.55
2019-04-30T13:46:31.526Z,28.67
2019-04-30T13:49:02.472Z,28.81
2019-04-30T13:54:28.569Z,28.15
2019-04-30T13:59:53.585Z,27.69
2019-04-30T14:02:30.018Z,27.68
2019-04-30T14:05:16.430Z,28.01
2019-04-30T14:08:06.255Z,28.12
2019-04-30T14:10:39.309Z,27.97
2019-04-30T14:13:09.686Z,28.16
2019-04-30T14:15:42.533Z,28.40
2019-04-30T14:18:27.399Z,28.56
2019-04-30T14:20:56.390Z,28.63
2019-04-30T14:26:39.143Z,28.36
2019-04-30T14:29:22.951Z,27.91
2019-04-30T14:31:53.754Z,27.53
2019-04-30T14:34:23.198Z,27.65
2019-04-30T14:36:53.986Z,27.63
2019-04-30T14:39:29.130Z,27.13
2019-04-30T14:41:59.872Z,26.78
2019-04-30T14:44:32.073Z,26.64
2019-04-30T14:47:05.564Z,26.49
2019-04-30T14:50:01.642Z,26.46
2019-04-30T14:52:23.607Z,26.39
2019-04-30T14:55:12.428Z,26.04
2019-04-30T14:57:51.299Z,25.75
2019-04-30T15:00:29.382Z,25.28
2019-04-30T15:03:13.021Z,25.06
2019-04-30T15:05:48.846Z,25.22
2019-04-30T15:08:16.509Z,25.22
2019-04-30T15:10:58.175Z,24.96
2019-04-30T15:13:31.417Z,24.93
2019-04-30T15:16:02.234Z,23.88
2019-04-30T15:18:34.960Z,23.88
2019-04-30T15:21:09.447Z,22.82
2019-04-30T15:26:22.903Z,22.01
2019-04-30T15:28:51.920Z,21.82
2019-04-30T15:31:21.347Z,21.93
2019-04-30T15:34:02.246Z,21.93
2019-04-30T15:36:23.554Z,21.87
2019-04-30T15:39:00.500Z,21.98
2019-04-30T15:41:30.722Z,21.84
2019-04-30T15:44:01.660Z,21.84
2019-04-30T15:46:31.076Z,21.69
2019-04-30T15:49:00.782Z,21.39
2019-04-30T15:51:30.222Z,21.32
2019-04-30T15:54:01.206Z,21.32
2019-04-30T15:56:37.129Z,21.22
2019-04-30T15:59:19.914Z,20.80
2019-04-30T16:01:50.907Z,20.80
2019-04-30T16:04:22.083Z,20.83
2019-04-30T16:06:51.423Z,20.93
2019-04-30T16:09:22.499Z,20.93
2019-04-30T16:11:53.552Z,21.15
2019-04-30T16:14:29.437Z,20.99
2019-04-30T16:17:03.417Z,21.04
2019-04-30T16:19:32.712Z,21.09
2019-04-30T16:22:02.215Z,20.96
2019-04-30T16:24:34.537Z,20.96
2019-04-30T16:27:03.959Z,20.96
2019-04-30T16:29:33.395Z,20.93
2019-04-30T16:32:05.945Z,20.97
2019-04-30T16:34:38.951Z,21.20
2019-04-30T16:37:09.835Z,20.96
2019-04-30T16:39:42.324Z,20.95
2019-04-30T16:42:11.853Z,20.82
2019-04-30T16:44:45.342Z,20.82
2019-04-30T16:47:17.021Z,20.65
2019-04-30T16:49:46.020Z,20.31
2019-04-30T16:52:15.567Z,20.31
2019-04-30T16:54:45.704Z,20.28
2019-04-30T16:57:15.091Z,20.23
2019-04-30T16:59:45.448Z,20.09
2019-04-30T17:02:15.179Z,20.24
2019-04-30T17:04:46.170Z,20.24
2019-04-30T17:07:19.374Z,20.00
2019-04-30T17:09:51.598Z,19.70
2019-04-30T17:12:22.944Z,19.70
2019-04-30T17:15:15.655Z,19.65
2019-04-30T17:17:45.257Z,19.68
2019-04-30T17:20:14.979Z,19.62
2019-04-30T17:22:44.374Z,19.62
2019-04-30T17:25:13.987Z,19.59
2019-04-30T17:27:43.413Z,19.38
2019-04-30T17:30:13.566Z,19.13
2019-04-30T17:32:42.945Z,19.00
2019-04-30T17:35:12.684Z,18.92
2019-04-30T17:37:42.062Z,18.74
2019-04-30T17:40:11.815Z,18.61
2019-04-30T17:42:41.200Z,18.51
2019-04-30T17:45:10.921Z,18.48
2019-04-30T17:47:40.589Z,18.46
2019-04-30T17:50:11.460Z,18.33
2019-04-30T17:52:41.122Z,18.34
2019-04-30T17:55:10.726Z,18.34
2019-04-30T17:57:40.432Z,18.41
2019-04-30T18:00:18.903Z,18.41
2019-04-30T18:02:43.663Z,18.37
2019-04-30T18:05:13.484Z,18.26
2019-04-30T18:07:43.060Z,18.23
2019-04-30T18:10:14.104Z,18.24
2019-04-30T18:12:43.552Z,18.22
2019-04-30T18:15:15.838Z,18.07
2019-04-30T18:18:06.516Z,18.07
2019-04-30T18:20:40.537Z,18.00
2019-04-30T18:23:27.948Z,17.93
2019-04-30T18:25:58.973Z,17.99
2019-04-30T18:28:29.145Z,18.03
2019-04-30T18:30:59.114Z,18.12
2019-04-30T18:33:28.781Z,18.10
2019-04-30T18:35:59.706Z,18.10
2019-04-30T18:38:31.043Z,18.08
2019-04-30T18:41:00.749Z,17.91
2019-04-30T18:43:30.125Z,17.83
2019-04-30T18:46:00.707Z,17.83
2019-04-30T18:48:30.375Z,17.70
2019-04-30T18:50:59.817Z,17.71
2019-04-30T18:53:30.831Z,17.73
2019-04-30T18:56:00.427Z,17.75
2019-04-30T18:58:39.308Z,17.67
2019-04-30T19:01:00.963Z,17.69
2019-04-30T19:03:30.474Z,17.63
2019-04-30T19:06:04.390Z,17.57
2019-04-30T19:08:35.401Z,17.50
2019-04-30T19:11:22.969Z,17.44
2019-04-30T19:14:09.592Z,17.38
2019-04-30T19:16:56.985Z,17.38
2019-04-30T19:19:29.533Z,17.34
2019-04-30T19:22:00.541Z,17.22
2019-04-30T19:24:29.968Z,17.03
2019-04-30T19:26:59.501Z,16.98
2019-04-30T19:29:29.066Z,16.90
2019-04-30T19:31:59.422Z,16.43
2019-04-30T19:34:31.526Z,16.41
2019-04-30T19:37:00.076Z,16.53
2019-04-30T19:39:32.359Z,16.46
2019-04-30T19:42:01.120Z,16.28
2019-04-30T19:44:30.610Z,16.19
2019-04-30T19:46:59.939Z,16.26
2019-04-30T19:49:29.379Z,16.22
2019-04-30T19:52:06.197Z,16.13
2019-04-30T19:54:33.430Z,16.22
2019-04-30T19:57:02.785Z,16.34
2019-04-30T19:59:32.177Z,16.41
2019-04-30T20:02:01.573Z,16.44
2019-04-30T20:04:34.103Z,16.36
2019-04-30T20:07:02.069Z,16.36
2019-04-30T20:09:31.435Z,16.33
2019-04-30T20:12:00.889Z,16.16
2019-04-30T20:14:30.321Z,16.12
2019-04-30T20:16:59.748Z,15.96
2019-04-30T20:19:30.733Z,15.85
2019-04-30T20:22:00.374Z,15.83
2019-04-30T20:24:29.736Z,15.81
2019-04-30T20:27:07.121Z,15.79
2019-04-30T20:29:30.858Z,15.78
2019-04-30T20:32:00.264Z,15.64
2019-04-30T20:34:29.612Z,15.64
2019-04-30T20:37:00.359Z,15.57
2019-04-30T20:39:34.551Z,15.54
2019-04-30T20:42:03.908Z,15.48
2019-04-30T20:44:33.272Z,15.34
2019-04-30T20:47:02.711Z,15.34
2019-04-30T20:49:32.059Z,15.24
2019-04-30T20:52:01.396Z,15.28
2019-04-30T20:54:30.772Z,15.24
2019-04-30T20:57:00.161Z,15.26
2019-04-30T20:59:29.495Z,15.28
2019-04-30T21:01:58.935Z,15.31
2019-04-30T21:04:28.301Z,15.28
2019-04-30T21:06:59.510Z,15.23
2019-04-30T21:09:28.795Z,15.15
2019-04-30T21:11:58.772Z,15.09
2019-04-30T21:14:28.488Z,14.94
2019-04-30T21:16:57.878Z,14.76
2019-04-30T21:19:27.227Z,14.53
2019-04-30T21:21:56.588Z,14.40
2019-04-30T21:24:25.925Z,14.56
2019-04-30T21:26:55.360Z,14.62
2019-04-30T21:29:24.812Z,14.69
2019-04-30T21:31:55.802Z,14.65
2019-04-30T21:37:18.228Z,14.53
2019-04-30T21:39:49.979Z,14.43
2019-04-30T21:42:18.637Z,14.26
2019-04-30T21:44:48.056Z,14.01
2019-04-30T21:47:17.476Z,14.07
2019-04-30T21:49:46.807Z,14.05
2019-04-30T21:52:16.240Z,13.94
2019-04-30T21:54:45.741Z,13.93
2019-04-30T21:57:15.087Z,13.94
2019-04-30T21:59:44.468Z,13.97
2019-04-30T22:02:13.993Z,13.97
2019-04-30T22:04:43.493Z,14.01
2019-04-30T22:07:12.848Z,14.03
2019-04-30T22:09:42.190Z,14.03
2019-04-30T22:12:11.579Z,14.05
2019-04-30T22:14:40.912Z,14.02
2019-04-30T22:17:10.318Z,14.00
2019-04-30T22:19:39.658Z,13.97
2019-04-30T22:22:09.452Z,13.92
2019-04-30T22:24:38.971Z,13.81
2019-04-30T22:27:10.310Z,13.74
2019-04-30T22:29:42.164Z,13.74
2019-04-30T22:32:10.795Z,13.66
2019-04-30T22:34:40.143Z,13.67
2019-04-30T22:37:09.589Z,13.63
2019-04-30T22:39:40.562Z,13.58
2019-04-30T22:42:33.624Z,13.57
2019-04-30T22:45:06.746Z,13.54
2019-04-30T22:47:36.102Z,13.52
2019-04-30T22:50:07.198Z,13.49
2019-04-30T22:52:36.546Z,13.44
2019-04-30T22:55:07.258Z,13.45
2019-04-30T22:57:36.666Z,13.34
2019-04-30T23:00:10.360Z,13.33
2019-04-30T23:02:47.531Z,13.26
2019-04-30T23:05:16.940Z,13.26
2019-04-30T23:07:46.268Z,13.19
2019-04-30T23:10:17.080Z,13.20
2019-04-30T23:12:46.748Z,13.18
2019-04-30T23:15:16.982Z,13.10
2019-04-30T23:17:46.325Z,13.13
2019-04-30T23:20:16.136Z,13.05
2019-04-30T23:22:45.557Z,13.05
2019-04-30T23:25:15.001Z,12.94
2019-04-30T23:27:44.396Z,12.80
2019-04-30T23:30:14.011Z,12.75
2019-04-30T23:32:43.430Z,12.64
2019-04-30T23:35:13.260Z,12.53
2019-04-30T23:37:42.596Z,12.39
2019-04-30T23:40:28.696Z,12.34
2019-04-30T23:42:58.470Z,12.30
2019-04-30T23:45:27.892Z,12.19
2019-04-30T23:47:57.214Z,12.14
2019-04-30T23:50:26.575Z,12.21
2019-04-30T23:52:55.990Z,12.21
2019-04-30T23:55:25.332Z,12.16
2019-04-30T23:57:54.679Z,12.11
